createdAt,value
2017-05-02T00:00:13.670Z,12.67
2017-05-02T00:00:54.550Z,12.73
2017-05-02T00:01:35.429Z,12.7
2017-05-02T00:02:16.307Z,12.67
2017-05-02T00:02:57.195Z,12.72
2017-05-02T00:03:38.066Z,12.68
2017-05-02T00:04:18.964Z,12.67
2017-05-02T00:04:59.851Z,12.67
2017-05-02T00:05:40.740Z,12.67
2017-05-02T00:06:21.618Z,12.72
2017-05-02T00:07:02.499Z,12.67
2017-05-02T00:07:43.391Z,12.58
2017-05-02T00:08:24.290Z,12.61
2017-05-02T00:09:05.176Z,12.67
2017-05-02T00:09:46.076Z,12.61
2017-05-02T00:10:26.954Z,12.6
2017-05-02T00:11:07.836Z,12.68
2017-05-02T00:11:48.736Z,12.58
2017-05-02T00:12:29.623Z,12.68
2017-05-02T00:13:10.497Z,12.58
2017-05-02T00:13:51.382Z,12.65
2017-05-02T00:14:32.270Z,12.61
2017-05-02T00:15:13.156Z,12.58
2017-05-02T00:15:54.039Z,12.53
2017-05-02T00:16:34.919Z,12.53
2017-05-02T00:17:15.805Z,12.47
2017-05-02T00:17:56.700Z,12.55
2017-05-02T00:18:37.582Z,12.54
2017-05-02T00:19:18.446Z,12.46
2017-05-02T00:19:59.336Z,12.53
2017-05-02T00:20:40.225Z,12.43
2017-05-02T00:21:21.109Z,12.55
2017-05-02T00:22:01.986Z,12.43
2017-05-02T00:22:42.876Z,12.43
2017-05-02T00:23:23.767Z,12.49
2017-05-02T00:24:04.644Z,12.45
2017-05-02T00:24:45.525Z,12.45
2017-05-02T00:25:26.420Z,12.42
2017-05-02T00:26:07.309Z,12.43
2017-05-02T00:26:48.186Z,12.4
2017-05-02T00:27:29.079Z,12.47
2017-05-02T00:28:09.972Z,12.32
2017-05-02T00:28:50.843Z,12.36
2017-05-02T00:29:31.717Z,12.42
2017-05-02T00:30:12.609Z,12.32
2017-05-02T00:30:53.495Z,12.36
2017-05-02T00:31:34.361Z,12.37
2017-05-02T00:32:15.244Z,12.36
2017-05-02T00:32:56.120Z,12.4
2017-05-02T00:33:37.006Z,12.36
2017-05-02T00:34:17.887Z,12.4
2017-05-02T00:34:58.770Z,12.4
2017-05-02T00:35:39.654Z,12.35
2017-05-02T00:36:20.546Z,12.42
2017-05-02T00:37:01.430Z,12.29
2017-05-02T00:37:42.311Z,12.35
2017-05-02T00:38:23.207Z,12.25
2017-05-02T00:39:04.100Z,12.36
2017-05-02T00:39:44.977Z,12.37
2017-05-02T00:40:25.862Z,12.35
2017-05-02T00:41:06.752Z,12.36
2017-05-02T00:41:47.639Z,12.29
2017-05-02T00:42:28.529Z,12.37
2017-05-02T00:43:09.419Z,12.35
2017-05-02T00:43:50.308Z,12.31
2017-05-02T00:44:31.212Z,12.32
2017-05-02T00:45:12.107Z,12.31
2017-05-02T00:45:53.001Z,12.32
2017-05-02T00:46:33.881Z,12.25
2017-05-02T00:47:14.771Z,12.29
2017-05-02T00:47:55.655Z,12.24
2017-05-02T00:48:36.536Z,12.24
2017-05-02T00:49:17.424Z,12.25
2017-05-02T00:49:58.328Z,12.13
2017-05-02T00:50:39.209Z,12.24
2017-05-02T00:51:20.092Z,12.18
2017-05-02T00:52:00.963Z,12.17
2017-05-02T00:52:41.853Z,12.2
2017-05-02T00:53:22.740Z,12.2
2017-05-02T00:54:03.628Z,12.21
2017-05-02T00:54:44.515Z,12.2
2017-05-02T00:55:25.400Z,12.18
2017-05-02T00:56:06.279Z,12.12
2017-05-02T00:56:47.156Z,12.09
2017-05-02T00:57:28.044Z,12.09
2017-05-02T00:58:08.938Z,12
2017-05-02T00:58:49.811Z,12.02
2017-05-02T00:59:30.690Z,11.99
2017-05-02T01:00:11.565Z,12.13
2017-05-02T01:00:52.459Z,12.12
2017-05-02T01:01:33.342Z,12.09
2017-05-02T01:02:14.225Z,12.07
2017-05-02T01:02:55.117Z,12
2017-05-02T01:03:36.000Z,12.03
2017-05-02T01:04:16.891Z,12.04
2017-05-02T01:04:57.758Z,12.04
2017-05-02T01:05:38.647Z,12.02
2017-05-02T01:06:19.535Z,12.03
2017-05-02T01:07:00.413Z,12.04
2017-05-02T01:07:41.297Z,12.03
2017-05-02T01:08:22.167Z,12
2017-05-02T01:09:03.074Z,11.87
2017-05-02T01:09:43.951Z,11.95
2017-05-02T01:10:24.832Z,11.9
2017-05-02T01:11:05.732Z,11.95
2017-05-02T01:11:46.621Z,12.02
2017-05-02T01:12:27.484Z,11.99
2017-05-02T01:13:08.339Z,11.8
2017-05-02T01:13:49.213Z,11.87
2017-05-02T01:14:30.092Z,11.88
2017-05-02T01:15:10.974Z,11.83
2017-05-02T01:15:51.848Z,11.83
2017-05-02T01:16:32.734Z,11.83
2017-05-02T01:17:13.573Z,11.83
2017-05-02T01:17:54.445Z,11.81
2017-05-02T01:18:35.320Z,11.86
2017-05-02T01:19:16.197Z,11.88
2017-05-02T01:19:57.085Z,11.91
2017-05-02T01:20:37.974Z,11.81
2017-05-02T01:21:18.886Z,11.81
2017-05-02T01:21:59.793Z,11.86
2017-05-02T01:22:40.679Z,11.86
2017-05-02T01:23:21.558Z,11.78
2017-05-02T01:24:02.446Z,11.78
2017-05-02T01:24:43.327Z,11.78
2017-05-02T01:25:24.208Z,11.7
2017-05-02T01:26:05.097Z,11.72
2017-05-02T01:26:45.973Z,11.68
2017-05-02T01:27:26.859Z,11.8
2017-05-02T01:28:07.744Z,11.77
2017-05-02T01:28:48.603Z,11.66
2017-05-02T01:29:29.496Z,11.68
2017-05-02T01:30:10.387Z,11.73
2017-05-02T01:30:51.254Z,11.68
2017-05-02T01:31:32.113Z,11.72
2017-05-02T01:32:13.014Z,11.65
2017-05-02T01:32:53.899Z,11.62
2017-05-02T01:33:34.783Z,11.63
2017-05-02T01:34:15.653Z,11.6
2017-05-02T01:34:56.543Z,11.57
2017-05-02T01:35:37.439Z,11.63
2017-05-02T01:36:18.321Z,11.52
2017-05-02T01:36:59.217Z,11.55
2017-05-02T01:37:40.107Z,11.5
2017-05-02T01:38:20.995Z,11.51
2017-05-02T01:39:01.860Z,11.51
2017-05-02T01:39:42.747Z,11.52
2017-05-02T01:40:23.635Z,11.47
2017-05-02T01:41:04.526Z,11.48
2017-05-02T01:41:45.407Z,11.48
2017-05-02T01:42:26.296Z,11.51
2017-05-02T01:43:07.185Z,11.44
2017-05-02T01:43:48.069Z,11.5
2017-05-02T01:44:28.943Z,11.51
2017-05-02T01:45:09.832Z,11.51
2017-05-02T01:45:50.725Z,11.43
2017-05-02T01:46:31.596Z,11.37
2017-05-02T01:47:12.465Z,11.47
2017-05-02T01:47:53.346Z,11.4
2017-05-02T01:48:34.239Z,11.45
2017-05-02T01:49:15.132Z,11.41
2017-05-02T01:49:56.014Z,11.36
2017-05-02T01:50:36.895Z,11.44
2017-05-02T01:51:17.779Z,11.41
2017-05-02T01:51:58.662Z,11.43
2017-05-02T01:52:39.540Z,11.37
2017-05-02T01:53:20.429Z,11.44
2017-05-02T01:54:01.344Z,11.4
2017-05-02T01:54:42.212Z,11.4
2017-05-02T01:55:23.096Z,11.29
2017-05-02T01:56:03.991Z,11.33
2017-05-02T01:56:44.871Z,11.4
2017-05-02T01:57:25.754Z,11.36
2017-05-02T01:58:06.628Z,11.22
2017-05-02T01:58:47.534Z,11.19
2017-05-02T01:59:28.417Z,11.23
2017-05-02T02:00:09.287Z,11.22
2017-05-02T02:00:50.180Z,11.17
2017-05-02T02:01:31.077Z,11.23
2017-05-02T02:02:11.963Z,11.25
2017-05-02T02:02:52.851Z,11.26
2017-05-02T02:03:33.733Z,11.25
2017-05-02T02:04:14.614Z,11.26
2017-05-02T02:04:55.497Z,11.17
2017-05-02T02:05:36.391Z,11.14
2017-05-02T02:06:17.283Z,11.11
2017-05-02T02:06:58.158Z,11.17
2017-05-02T02:07:39.047Z,11.12
2017-05-02T02:08:19.905Z,11.14
2017-05-02T02:09:00.776Z,11.08
2017-05-02T02:09:41.663Z,11.11
2017-05-02T02:10:22.553Z,11.1
2017-05-02T02:11:03.444Z,11.07
2017-05-02T02:11:44.333Z,11.07
2017-05-02T02:12:25.218Z,11.14
2017-05-02T02:13:06.105Z,11
2017-05-02T02:13:46.986Z,11.17
2017-05-02T02:14:27.876Z,11.04
2017-05-02T02:15:08.756Z,11.05
2017-05-02T02:15:49.625Z,11.1
2017-05-02T02:16:30.482Z,11.05
2017-05-02T02:17:11.363Z,11.07
2017-05-02T02:17:52.258Z,11.04
2017-05-02T02:18:33.136Z,10.96
2017-05-02T02:19:14.004Z,10.92
2017-05-02T02:19:54.871Z,11.02
2017-05-02T02:20:35.747Z,11.02
2017-05-02T02:21:16.630Z,10.97
2017-05-02T02:21:57.515Z,10.94
2017-05-02T02:22:38.393Z,10.97
2017-05-02T02:23:19.287Z,11.02
2017-05-02T02:24:00.150Z,10.94
2017-05-02T02:24:41.039Z,10.96
2017-05-02T02:25:21.919Z,10.94
2017-05-02T02:26:02.806Z,10.99
2017-05-02T02:26:43.699Z,10.92
2017-05-02T02:27:24.579Z,10.93
2017-05-02T02:28:05.461Z,10.97
2017-05-02T02:28:46.340Z,10.93
2017-05-02T02:29:27.218Z,10.94
2017-05-02T02:30:08.095Z,10.89
2017-05-02T02:30:48.971Z,10.86
2017-05-02T02:31:29.863Z,10.76
2017-05-02T02:32:10.739Z,10.82
2017-05-02T02:32:51.615Z,10.81
2017-05-02T02:33:32.501Z,10.86
2017-05-02T02:34:13.377Z,10.87
2017-05-02T02:34:54.257Z,10.79
2017-05-02T02:35:35.158Z,10.86
2017-05-02T02:36:16.049Z,10.84
2017-05-02T02:36:56.921Z,10.79
2017-05-02T02:37:37.799Z,10.72
2017-05-02T02:38:18.680Z,10.72
2017-05-02T02:38:59.562Z,10.72
2017-05-02T02:39:40.452Z,10.71
2017-05-02T02:40:21.342Z,10.72
2017-05-02T02:41:02.203Z,10.76
2017-05-02T02:41:43.077Z,10.75
2017-05-02T02:42:23.963Z,10.72
2017-05-02T02:43:04.838Z,10.69
2017-05-02T02:43:45.707Z,10.61
2017-05-02T02:44:26.581Z,10.67
2017-05-02T02:45:07.443Z,10.63
2017-05-02T02:45:48.300Z,10.56
2017-05-02T02:46:29.189Z,10.61
2017-05-02T02:47:10.036Z,10.67
2017-05-02T02:47:50.940Z,10.61
2017-05-02T02:48:31.815Z,10.63
2017-05-02T02:49:12.694Z,10.61
2017-05-02T02:49:53.560Z,10.68
2017-05-02T02:50:34.457Z,10.6
2017-05-02T02:51:15.328Z,10.59
2017-05-02T02:51:56.202Z,10.56
2017-05-02T02:52:37.076Z,10.54
2017-05-02T02:53:17.937Z,10.56
2017-05-02T02:53:58.788Z,10.59
2017-05-02T02:54:39.648Z,10.56
2017-05-02T02:55:20.519Z,10.53
2017-05-02T02:56:01.390Z,10.54
2017-05-02T02:56:42.267Z,10.57
2017-05-02T02:57:23.133Z,10.54
2017-05-02T02:58:04.007Z,10.6
2017-05-02T02:58:44.878Z,10.54
2017-05-02T02:59:25.861Z,10.57
2017-05-02T03:00:06.668Z,10.53
2017-05-02T03:00:47.531Z,10.59
2017-05-02T03:01:28.417Z,10.54
2017-05-02T03:02:09.313Z,10.59
2017-05-02T03:02:50.126Z,10.48
2017-05-02T03:03:31.005Z,10.57
2017-05-02T03:04:11.887Z,10.61
2017-05-02T03:04:52.767Z,10.57
2017-05-02T03:05:33.635Z,10.59
2017-05-02T03:06:14.510Z,10.57
2017-05-02T03:06:55.371Z,10.56
2017-05-02T03:07:36.239Z,10.48
2017-05-02T03:08:17.119Z,10.56
2017-05-02T03:08:58.007Z,10.57
2017-05-02T03:09:38.889Z,10.42
2017-05-02T03:10:19.761Z,10.53
2017-05-02T03:11:00.637Z,10.48
2017-05-02T03:11:41.509Z,10.48
2017-05-02T03:12:22.404Z,10.46
2017-05-02T03:13:03.287Z,10.42
2017-05-02T03:13:44.168Z,10.4
2017-05-02T03:14:25.048Z,10.37
2017-05-02T03:15:05.927Z,10.44
2017-05-02T03:15:46.825Z,10.42
2017-05-02T03:16:27.704Z,10.44
2017-05-02T03:17:08.587Z,10.42
2017-05-02T03:17:49.473Z,10.46
2017-05-02T03:18:30.359Z,10.37
2017-05-02T03:19:11.245Z,10.37
2017-05-02T03:19:52.129Z,10.3
2017-05-02T03:20:33.002Z,10.42
2017-05-02T03:21:13.892Z,10.37
2017-05-02T03:21:54.771Z,10.33
2017-05-02T03:22:35.654Z,10.35
2017-05-02T03:23:16.565Z,10.34
2017-05-02T03:23:57.425Z,10.35
2017-05-02T03:24:38.302Z,10.33
2017-05-02T03:25:19.180Z,10.33
2017-05-02T03:26:00.066Z,10.3
2017-05-02T03:26:40.955Z,10.33
2017-05-02T03:27:21.839Z,10.26
2017-05-02T03:28:02.721Z,10.2
2017-05-02T03:28:43.605Z,10.28
2017-05-02T03:29:24.491Z,10.23
2017-05-02T03:30:05.373Z,10.25
2017-05-02T03:30:46.269Z,10.28
2017-05-02T03:31:27.162Z,10.23
2017-05-02T03:32:08.043Z,10.25
2017-05-02T03:32:48.927Z,10.22
2017-05-02T03:33:29.803Z,10.22
2017-05-02T03:34:10.687Z,10.22
2017-05-02T03:34:51.578Z,10.25
2017-05-02T03:35:32.457Z,10.22
2017-05-02T03:36:13.329Z,10.17
2017-05-02T03:36:54.213Z,10.2
2017-05-02T03:37:35.095Z,10.17
2017-05-02T03:38:15.974Z,10.16
2017-05-02T03:38:56.858Z,10.2
2017-05-02T03:39:37.719Z,10.17
2017-05-02T03:40:18.600Z,10.2
2017-05-02T03:40:59.482Z,10.16
2017-05-02T03:41:40.364Z,10.15
2017-05-02T03:42:21.251Z,10.23
2017-05-02T03:43:02.137Z,10.19
2017-05-02T03:43:43.017Z,10.2
2017-05-02T03:44:23.892Z,10.19
2017-05-02T03:45:04.782Z,10.17
2017-05-02T03:45:45.666Z,10.09
2017-05-02T03:46:26.547Z,10.23
2017-05-02T03:47:07.431Z,10.15
2017-05-02T03:47:48.314Z,10.17
2017-05-02T03:48:29.203Z,10.17
2017-05-02T03:49:10.086Z,10.25
2017-05-02T03:49:50.963Z,10.22
2017-05-02T03:50:31.849Z,10.19
2017-05-02T03:51:12.733Z,10.19
2017-05-02T03:51:53.615Z,10.31
2017-05-02T03:52:34.498Z,10.3
2017-05-02T03:53:15.386Z,10.22
2017-05-02T03:53:56.273Z,10.15
2017-05-02T03:54:37.151Z,10.23
2017-05-02T03:55:18.030Z,10.16
2017-05-02T03:55:58.918Z,10.2
2017-05-02T03:56:39.807Z,10.16
2017-05-02T03:57:20.680Z,10.16
2017-05-02T03:58:01.556Z,10.17
2017-05-02T03:58:42.444Z,10.2
2017-05-02T03:59:23.330Z,10.23
2017-05-02T04:00:04.211Z,10.25
2017-05-02T04:00:45.099Z,10.23
2017-05-02T04:01:25.982Z,10.19
2017-05-02T04:02:06.874Z,10.19
2017-05-02T04:02:47.755Z,10.25
2017-05-02T04:03:28.663Z,10.22
2017-05-02T04:04:09.553Z,10.23
2017-05-02T04:04:50.424Z,10.17
2017-05-02T04:05:31.309Z,10.17
2017-05-02T04:06:12.183Z,10.2
2017-05-02T04:06:53.070Z,10.17
2017-05-02T04:07:33.955Z,10.26
2017-05-02T04:08:14.835Z,10.16
2017-05-02T04:08:55.724Z,10.19
2017-05-02T04:09:36.612Z,10.19
2017-05-02T04:10:17.498Z,10.2
2017-05-02T04:10:58.385Z,10.09
2017-05-02T04:11:39.278Z,10.16
2017-05-02T04:12:20.170Z,10.16
2017-05-02T04:13:01.051Z,10.15
2017-05-02T04:13:41.944Z,10.15
2017-05-02T04:14:22.833Z,10.23
2017-05-02T04:15:03.705Z,10.19
2017-05-02T04:15:44.588Z,10.2
2017-05-02T04:16:25.486Z,10.17
2017-05-02T04:17:06.371Z,10.23
2017-05-02T04:17:47.266Z,10.19
2017-05-02T04:18:28.161Z,10.16
2017-05-02T04:19:09.044Z,10.19
2017-05-02T04:19:49.967Z,10.22
2017-05-02T04:20:30.847Z,10.22
2017-05-02T04:21:11.726Z,10.31
2017-05-02T04:21:52.602Z,10.23
2017-05-02T04:22:33.500Z,10.25
2017-05-02T04:23:14.387Z,10.34
2017-05-02T04:23:55.264Z,10.28
2017-05-02T04:24:36.151Z,10.33
2017-05-02T04:25:17.037Z,10.16
2017-05-02T04:25:57.921Z,10.19
2017-05-02T04:26:38.809Z,10.17
2017-05-02T04:27:19.684Z,10.23
2017-05-02T04:28:00.570Z,10.15
2017-05-02T04:28:41.456Z,10.19
2017-05-02T04:29:22.342Z,10.22
2017-05-02T04:30:03.233Z,10.2
2017-05-02T04:30:44.127Z,10.2
2017-05-02T04:31:25.006Z,10.22
2017-05-02T04:32:05.919Z,10.1
2017-05-02T04:32:46.782Z,10.16
2017-05-02T04:33:27.674Z,10.1
2017-05-02T04:34:08.550Z,10.17
2017-05-02T04:34:49.426Z,10.15
2017-05-02T04:35:30.315Z,10.07
2017-05-02T04:36:11.204Z,10.05
2017-05-02T04:36:52.088Z,10.2
2017-05-02T04:37:32.967Z,10.26
2017-05-02T04:38:13.852Z,10.2
2017-05-02T04:38:54.737Z,10.16
2017-05-02T04:39:35.621Z,10.19
2017-05-02T04:40:16.504Z,10.19
2017-05-02T04:40:57.414Z,10.26
2017-05-02T04:41:38.294Z,10.12
2017-05-02T04:42:19.179Z,10.1
2017-05-02T04:43:00.069Z,10.1
2017-05-02T04:43:40.948Z,10.04
2017-05-02T04:44:21.835Z,10.13
2017-05-02T04:45:02.722Z,10.16
2017-05-02T04:45:43.718Z,10.07
2017-05-02T04:46:24.605Z,10.19
2017-05-02T04:47:05.473Z,10.23
2017-05-02T04:47:46.355Z,10.15
2017-05-02T04:48:27.236Z,10.26
2017-05-02T04:49:08.119Z,10.25
2017-05-02T04:49:49.001Z,10.19
2017-05-02T04:50:29.901Z,10.19
2017-05-02T04:51:10.755Z,10.15
2017-05-02T04:51:51.645Z,10.15
2017-05-02T04:52:32.533Z,10.2
2017-05-02T04:53:13.410Z,10.26
2017-05-02T04:53:54.289Z,10.17
2017-05-02T04:54:35.175Z,10.23
2017-05-02T04:55:16.063Z,10.17
2017-05-02T04:55:56.938Z,10.22
2017-05-02T04:56:37.820Z,10.12
2017-05-02T04:57:18.715Z,10.23
2017-05-02T04:57:59.601Z,10.19
2017-05-02T04:58:40.503Z,10.25
2017-05-02T04:59:21.393Z,10.26
2017-05-02T05:00:02.277Z,10.13
2017-05-02T05:00:43.157Z,10.3
2017-05-02T05:01:24.026Z,10.22
2017-05-02T05:02:04.903Z,10.15
2017-05-02T05:02:45.788Z,10.13
2017-05-02T05:03:26.674Z,10.09
2017-05-02T05:04:07.553Z,10.15
2017-05-02T05:04:48.441Z,10.19
2017-05-02T05:05:29.362Z,10.13
2017-05-02T05:06:10.241Z,10.31
2017-05-02T05:06:51.118Z,10.17
2017-05-02T05:07:31.998Z,10.15
2017-05-02T05:08:12.888Z,10.26
2017-05-02T05:08:53.776Z,10.09
2017-05-02T05:09:34.645Z,10.19
2017-05-02T05:10:15.603Z,10.17
2017-05-02T05:10:56.463Z,10.23
2017-05-02T05:11:37.336Z,10.17
2017-05-02T05:12:18.213Z,10.23
2017-05-02T05:12:59.116Z,10.17
2017-05-02T05:13:40.001Z,10.31
2017-05-02T05:14:20.879Z,10.22
2017-05-02T05:15:01.763Z,10.22
2017-05-02T05:15:42.661Z,10.2
2017-05-02T05:16:23.538Z,10.23
2017-05-02T05:17:04.423Z,10.33
2017-05-02T05:17:45.306Z,10.33
2017-05-02T05:18:26.217Z,10.4
2017-05-02T05:19:07.067Z,10.35
2017-05-02T05:19:47.947Z,10.35
2017-05-02T05:20:28.839Z,10.31
2017-05-02T05:21:09.715Z,10.33
2017-05-02T05:21:50.600Z,10.49
2017-05-02T05:22:31.483Z,10.37
2017-05-02T05:23:12.363Z,10.41
2017-05-02T05:23:53.245Z,10.49
2017-05-02T05:24:34.127Z,10.44
2017-05-02T05:25:15.009Z,10.4
2017-05-02T05:25:55.896Z,10.37
2017-05-02T05:26:36.785Z,10.42
2017-05-02T05:27:17.664Z,10.42
2017-05-02T05:27:58.558Z,10.37
2017-05-02T05:28:39.442Z,10.44
2017-05-02T05:29:20.325Z,10.35
2017-05-02T05:30:01.221Z,10.44
2017-05-02T05:30:42.094Z,10.46
2017-05-02T05:32:35.885Z,10.41
2017-05-02T05:33:16.765Z,10.4
2017-05-02T05:33:57.643Z,10.35
2017-05-02T05:34:38.520Z,10.48
2017-05-02T05:35:19.691Z,10.44
2017-05-02T05:36:38.523Z,10.42
2017-05-02T05:37:19.402Z,10.49
2017-05-02T05:38:00.280Z,10.48
2017-05-02T05:38:41.165Z,10.44
2017-05-02T05:39:22.047Z,10.48
2017-05-02T05:40:02.932Z,10.54
2017-05-02T05:40:43.817Z,10.51
2017-05-02T05:41:24.695Z,10.68
2017-05-02T05:42:05.572Z,10.71
2017-05-02T05:42:46.465Z,10.69
2017-05-02T05:43:27.338Z,10.61
2017-05-02T05:44:08.520Z,10.56
2017-05-02T05:44:49.392Z,10.56
2017-05-02T05:45:32.047Z,10.56
2017-05-02T05:46:12.903Z,10.67
2017-05-02T05:46:53.805Z,10.59
2017-05-02T05:48:21.919Z,10.71
2017-05-02T05:49:02.807Z,10.74
2017-05-02T05:49:43.698Z,10.72
2017-05-02T05:50:24.610Z,10.81
2017-05-02T05:51:05.461Z,10.81
2017-05-02T05:51:46.342Z,10.9
2017-05-02T05:52:27.293Z,10.97
2017-05-02T05:53:08.165Z,10.99
2017-05-02T05:53:49.049Z,10.92
2017-05-02T05:54:29.930Z,10.97
2017-05-02T05:55:10.804Z,10.99
2017-05-02T05:55:51.690Z,11.1
2017-05-02T05:56:32.579Z,11.12
2017-05-02T05:57:13.526Z,11.14
2017-05-02T05:57:54.406Z,11.19
2017-05-02T05:58:35.291Z,11.23
2017-05-02T05:59:16.164Z,11.22
2017-05-02T05:59:57.059Z,11.12
2017-05-02T06:00:37.989Z,11.26
2017-05-02T06:01:18.868Z,11.18
2017-05-02T06:01:59.762Z,11.19
2017-05-02T06:02:40.662Z,11.26
2017-05-02T06:03:21.519Z,11.23
2017-05-02T06:04:02.385Z,11.35
2017-05-02T06:04:43.287Z,11.4
2017-05-02T06:05:24.160Z,11.47
2017-05-02T06:06:05.042Z,11.47
2017-05-02T06:06:45.936Z,11.55
2017-05-02T06:07:26.817Z,11.6
2017-05-02T06:08:07.700Z,11.5
2017-05-02T06:08:48.582Z,11.65
2017-05-02T06:09:29.491Z,11.65
2017-05-02T06:10:10.373Z,11.6
2017-05-02T06:10:51.284Z,11.57
2017-05-02T06:11:32.177Z,11.62
2017-05-02T06:12:13.116Z,11.54
2017-05-02T06:12:54.009Z,11.59
2017-05-02T06:13:34.878Z,11.57
2017-05-02T06:14:15.761Z,11.65
2017-05-02T06:14:56.634Z,11.62
2017-05-02T06:15:37.530Z,11.63
2017-05-02T06:16:18.429Z,11.52
2017-05-02T06:17:36.279Z,11.48
2017-05-02T06:18:17.159Z,11.51
2017-05-02T06:18:58.064Z,11.48
2017-05-02T06:19:38.900Z,11.43
2017-05-02T06:20:19.777Z,11.6
2017-05-02T06:21:00.652Z,11.52
2017-05-02T06:21:41.527Z,11.68
2017-05-02T06:22:22.404Z,11.6
2017-05-02T06:23:03.264Z,11.59
2017-05-02T06:23:44.134Z,11.66
2017-05-02T06:24:25.015Z,11.66
2017-05-02T06:25:05.894Z,11.62
2017-05-02T06:25:46.773Z,11.6
2017-05-02T06:26:27.653Z,11.72
2017-05-02T06:27:08.542Z,11.72
2017-05-02T06:27:49.421Z,11.66
2017-05-02T06:28:30.298Z,11.72
2017-05-02T06:29:11.189Z,11.62
2017-05-02T06:29:52.079Z,11.7
2017-05-02T06:30:32.942Z,11.7
2017-05-02T06:31:13.831Z,11.72
2017-05-02T06:31:54.727Z,11.7
2017-05-02T06:32:35.598Z,11.69
2017-05-02T06:33:16.486Z,11.7
2017-05-02T06:33:57.374Z,11.86
2017-05-02T06:34:38.256Z,11.87
2017-05-02T06:35:19.141Z,11.99
2017-05-02T06:36:00.026Z,12.03
2017-05-02T06:36:40.907Z,12.1
2017-05-02T06:37:21.777Z,12.2
2017-05-02T06:38:02.664Z,12.18
2017-05-02T06:38:43.548Z,12.21
2017-05-02T06:39:24.432Z,12.21
2017-05-02T06:40:05.315Z,12.22
2017-05-02T06:40:46.208Z,12.18
2017-05-02T06:41:27.080Z,12.18
2017-05-02T06:42:07.949Z,12.21
2017-05-02T06:42:48.835Z,12.07
2017-05-02T06:43:29.760Z,12.17
2017-05-02T06:44:10.630Z,12.07
2017-05-02T06:44:51.525Z,12.1
2017-05-02T06:45:32.417Z,12.02
2017-05-02T06:46:13.299Z,12.06
2017-05-02T06:46:54.183Z,12.21
2017-05-02T06:47:35.065Z,12.13
2017-05-02T06:48:15.947Z,12.17
2017-05-02T06:48:56.828Z,12.12
2017-05-02T06:49:37.760Z,12
2017-05-02T06:50:18.596Z,12.1
2017-05-02T06:50:59.484Z,12.03
2017-05-02T06:51:40.364Z,12.09
2017-05-02T06:52:21.245Z,11.99
2017-05-02T06:53:02.132Z,11.94
2017-05-02T06:53:43.019Z,12.03
2017-05-02T06:54:23.901Z,12
2017-05-02T06:55:04.797Z,12.09
2017-05-02T06:55:45.675Z,11.95
2017-05-02T06:56:26.565Z,11.87
2017-05-02T06:57:07.442Z,11.9
2017-05-02T06:57:48.343Z,12
2017-05-02T06:58:29.212Z,11.95
2017-05-02T06:59:10.085Z,11.95
2017-05-02T06:59:50.969Z,12.07
2017-05-02T07:00:31.834Z,11.84
2017-05-02T07:01:12.722Z,11.88
2017-05-02T07:01:53.623Z,11.83
2017-05-02T07:02:34.491Z,11.91
2017-05-02T07:03:15.356Z,11.86
2017-05-02T07:03:56.223Z,11.97
2017-05-02T07:04:37.111Z,12.03
2017-05-02T07:05:17.993Z,12.03
2017-05-02T07:05:58.878Z,12.09
2017-05-02T07:06:39.764Z,12.15
2017-05-02T07:07:20.643Z,12.12
2017-05-02T07:08:01.521Z,12.02
2017-05-02T07:08:42.403Z,12.07
2017-05-02T07:09:23.274Z,12.15
2017-05-02T07:10:04.157Z,12.13
2017-05-02T07:10:45.027Z,12.03
2017-05-02T07:11:25.909Z,12.07
2017-05-02T07:12:06.797Z,12.1
2017-05-02T07:12:47.677Z,11.9
2017-05-02T07:13:28.568Z,11.88
2017-05-02T07:14:09.443Z,12.04
2017-05-02T07:14:50.325Z,12
2017-05-02T07:15:31.197Z,12
2017-05-02T07:16:12.081Z,12.03
2017-05-02T07:16:52.971Z,11.99
2017-05-02T07:17:33.823Z,11.88
2017-05-02T07:18:14.686Z,11.87
2017-05-02T07:18:55.548Z,11.8
2017-05-02T07:19:36.419Z,11.88
2017-05-02T07:20:17.288Z,11.95
2017-05-02T07:20:58.148Z,11.99
2017-05-02T07:21:39.016Z,11.99
2017-05-02T07:22:19.863Z,12.06
2017-05-02T07:23:00.737Z,12.13
2017-05-02T07:23:41.621Z,11.91
2017-05-02T07:24:22.505Z,12.07
2017-05-02T07:25:03.378Z,12.02
2017-05-02T07:25:44.269Z,11.99
2017-05-02T07:26:25.152Z,11.99
2017-05-02T07:27:06.040Z,11.97
2017-05-02T07:27:46.915Z,12.1
2017-05-02T07:28:27.795Z,12.09
2017-05-02T07:29:08.694Z,12.07
2017-05-02T07:29:49.599Z,12.09
2017-05-02T07:30:30.480Z,12.06
2017-05-02T07:31:11.363Z,11.94
2017-05-02T07:31:52.249Z,12
2017-05-02T07:32:33.131Z,11.99
2017-05-02T07:33:14.016Z,12.18
2017-05-02T07:33:54.896Z,12.1
2017-05-02T07:34:35.788Z,12.03
2017-05-02T07:35:16.671Z,12.09
2017-05-02T07:35:57.558Z,12.13
2017-05-02T07:36:38.440Z,12.04
2017-05-02T07:37:19.326Z,12.07
2017-05-02T07:38:00.210Z,12.07
2017-05-02T07:38:41.090Z,12.09
2017-05-02T07:39:21.972Z,12.07
2017-05-02T07:40:02.870Z,12.1
2017-05-02T07:40:43.763Z,12.13
2017-05-02T07:41:24.638Z,12.18
2017-05-02T07:42:05.536Z,12.09
2017-05-02T07:42:46.400Z,12.06
2017-05-02T07:43:27.302Z,12.06
2017-05-02T07:44:08.167Z,11.97
2017-05-02T07:44:49.055Z,11.84
2017-05-02T07:45:29.944Z,11.87
2017-05-02T07:46:10.832Z,11.84
2017-05-02T07:46:51.700Z,11.87
2017-05-02T07:47:32.590Z,11.86
2017-05-02T07:48:13.494Z,11.9
2017-05-02T07:48:54.363Z,11.88
2017-05-02T07:49:35.217Z,11.87
2017-05-02T07:50:16.096Z,11.97
2017-05-02T07:50:56.982Z,12.02
2017-05-02T07:51:37.864Z,12.07
2017-05-02T07:52:18.750Z,11.99
2017-05-02T07:52:59.633Z,12.1
2017-05-02T07:53:40.520Z,12.02
2017-05-02T07:54:21.404Z,12.07
2017-05-02T07:55:02.270Z,12.02
2017-05-02T07:55:43.166Z,12.02
2017-05-02T07:56:24.051Z,12.02
2017-05-02T07:57:04.933Z,12.09
2017-05-02T07:57:45.817Z,12.07
2017-05-02T07:58:26.699Z,12.13
2017-05-02T07:59:07.583Z,12.13
2017-05-02T07:59:48.489Z,12.09
2017-05-02T08:00:29.369Z,12.17
2017-05-02T08:01:10.277Z,12.2
2017-05-02T08:01:51.150Z,12.15
2017-05-02T08:02:32.028Z,12.2
2017-05-02T08:03:12.914Z,12.21
2017-05-02T08:03:53.806Z,12.1
2017-05-02T08:04:34.694Z,12.09
2017-05-02T08:05:15.570Z,12.02
2017-05-02T08:05:56.458Z,11.99
2017-05-02T08:06:37.355Z,12
2017-05-02T08:07:18.242Z,12.12
2017-05-02T08:07:59.117Z,12.21
2017-05-02T08:08:40.005Z,12.21
2017-05-02T08:09:20.882Z,12.17
2017-05-02T08:10:01.752Z,12.17
2017-05-02T08:10:42.622Z,12.21
2017-05-02T08:11:23.504Z,12.2
2017-05-02T08:12:04.394Z,12.22
2017-05-02T08:12:45.273Z,12.24
2017-05-02T08:13:26.156Z,12.24
2017-05-02T08:14:07.039Z,12.37
2017-05-02T08:14:47.924Z,12.31
2017-05-02T08:15:28.799Z,12.35
2017-05-02T08:16:09.674Z,12.35
2017-05-02T08:16:50.579Z,12.22
2017-05-02T08:17:31.429Z,12.37
2017-05-02T08:18:12.327Z,12.29
2017-05-02T08:18:53.212Z,12.36
2017-05-02T08:19:34.106Z,12.37
2017-05-02T08:20:14.981Z,12.37
2017-05-02T08:20:55.868Z,12.4
2017-05-02T08:21:36.755Z,12.37
2017-05-02T08:22:17.635Z,12.45
2017-05-02T08:22:58.525Z,12.45
2017-05-02T08:23:39.412Z,12.45
2017-05-02T08:24:20.294Z,12.36
2017-05-02T08:25:01.175Z,12.39
2017-05-02T08:25:42.060Z,12.39
2017-05-02T08:26:22.946Z,12.43
2017-05-02T08:27:03.823Z,12.45
2017-05-02T08:27:45.395Z,12.47
2017-05-02T08:28:26.293Z,12.43
2017-05-02T08:29:07.184Z,12.5
2017-05-02T08:29:48.059Z,12.49
2017-05-02T08:30:28.952Z,12.36
2017-05-02T08:31:09.841Z,12.35
2017-05-02T08:31:50.724Z,12.4
2017-05-02T08:32:31.608Z,12.32
2017-05-02T08:33:12.493Z,12.36
2017-05-02T08:33:53.376Z,12.37
2017-05-02T08:34:34.250Z,12.37
2017-05-02T08:35:15.141Z,12.37
2017-05-02T08:35:56.025Z,12.4
2017-05-02T08:36:36.927Z,12.37
2017-05-02T08:37:17.794Z,12.46
2017-05-02T08:37:58.640Z,12.35
2017-05-02T08:38:39.519Z,12.47
2017-05-02T08:39:20.405Z,12.4
2017-05-02T08:40:01.385Z,12.4
2017-05-02T08:40:42.228Z,12.42
2017-05-02T08:41:23.071Z,12.4
2017-05-02T08:42:03.949Z,12.24
2017-05-02T08:42:44.832Z,12.28
2017-05-02T08:43:25.718Z,12.28
2017-05-02T08:44:06.600Z,12.35
2017-05-02T08:44:47.488Z,12.35
2017-05-02T08:45:28.392Z,12.35
2017-05-02T08:46:09.260Z,12.37
2017-05-02T08:46:50.161Z,12.25
2017-05-02T08:47:31.054Z,12.31
2017-05-02T08:48:11.937Z,12.22
2017-05-02T08:48:52.816Z,12.27
2017-05-02T08:49:33.721Z,12.32
2017-05-02T08:50:14.606Z,12.37
2017-05-02T08:50:55.478Z,12.4
2017-05-02T08:51:36.366Z,12.35
2017-05-02T08:52:17.255Z,12.36